Portada
METAR-TAF:

METAR-TAF

Aeropuertos :

Angulema, Francia

latitud: 45-43-46N, longitud: 00-13-08E, altitud: 132 m

Observación

El informe se hizo hace 22 minutos, a las 01:00 UTC
Viento 6 kt del este-sureste
Temperatura 10°C
Humedad 66%
Presión 1024 hPa
Visibilidad 10 km o más

METAR: LFBU 020100Z AUTO 11006KT 9999 ////// 10/04 Q1024

Hora: 02:22 (01:22 UTC)

Pronóstico

El informe se hizo hace 4 horas y 22 minutos, a las 21:00 UTC
Pronóstico válido del 01 a las 21 UTC al 02 a las 18 UTC
Viento 5 kt del este-sureste
Visibilidad 10 km o más
sin nubes por debajo de 1500 m y sin presencia de cumulonimbus.

TAF: LFBU 012100Z 0121/0218 11005KT CAVOK

Observaciones y pronósticos meteorológicos de más de 4000 aeropuertos (mensajes METAR y TAF).

Los puntos amarillos y rojos representan las estaciones disponibles.

Ponga el ratón en el punto deseado para ver el nombre de la estación.

Haga clic para ver las observaciones y los pronósticos meteorológicos.

Para cambiar el mapa : haga clic en los botones verdes con una cruz de color negro para hacer un zoom, en el botón verde con un guión para alejar o en las flechas verdes para mapas adyacentes.


METAR-TAF: